createdAt,value
2023-04-29T00:00:09.840Z,3.50
2023-04-29T00:03:16.184Z,3.50
2023-04-29T00:06:19.615Z,3.50
2023-04-29T00:09:23.017Z,3.50
2023-04-29T00:12:28.131Z,3.40
2023-04-29T00:15:31.272Z,3.50
2023-04-29T00:18:36.711Z,3.50
2023-04-29T00:21:39.911Z,3.40
2023-04-29T00:24:43.085Z,3.50
2023-04-29T00:27:47.612Z,3.50
2023-04-29T00:30:51.292Z,3.50
2023-04-29T00:33:54.603Z,3.40
2023-04-29T00:36:57.876Z,3.40
2023-04-29T00:40:01.026Z,3.40
2023-04-29T00:43:05.720Z,3.30
2023-04-29T00:46:10.445Z,3.30
2023-04-29T00:49:16.179Z,3.30
2023-04-29T00:52:20.009Z,3.20
2023-04-29T00:55:24.807Z,3.30
2023-04-29T00:58:33.635Z,3.20
2023-04-29T01:01:38.107Z,3.30
2023-04-29T01:04:41.400Z,3.20
2023-04-29T01:07:49.970Z,3.20
2023-04-29T01:10:58.314Z,3.20
2023-04-29T01:14:04.850Z,3.20
2023-04-29T01:17:16.652Z,3.20
2023-04-29T01:20:22.256Z,3.20
2023-04-29T01:23:28.613Z,3.20
2023-04-29T01:26:35.409Z,3.30
2023-04-29T01:30:01.310Z,3.40
2023-04-29T01:33:15.944Z,3.50
2023-04-29T01:36:27.933Z,3.50
2023-04-29T01:39:38.913Z,3.40
2023-04-29T01:42:49.137Z,3.50
2023-04-29T01:45:56.120Z,3.60
2023-04-29T01:48:59.625Z,3.60
2023-04-29T01:52:03.408Z,3.60
2023-04-29T01:55:09.599Z,3.70
2023-04-29T01:58:20.119Z,3.80
2023-04-29T02:01:42.138Z,3.90
2023-04-29T02:04:46.153Z,3.80
2023-04-29T02:07:49.538Z,3.70
2023-04-29T02:10:59.164Z,3.70
2023-04-29T02:14:16.785Z,3.90
2023-04-29T02:17:20.168Z,3.80
2023-04-29T02:20:23.358Z,3.80
2023-04-29T02:23:26.570Z,3.80
2023-04-29T02:26:31.177Z,3.70
2023-04-29T02:29:34.556Z,3.70
2023-04-29T02:32:39.339Z,3.80
2023-04-29T02:35:42.658Z,3.80
2023-04-29T02:38:46.170Z,3.80
2023-04-29T02:41:50.992Z,3.80
2023-04-29T02:44:54.450Z,3.70
2023-04-29T02:47:57.716Z,3.70
2023-04-29T02:51:01.216Z,3.60
2023-04-29T02:54:04.471Z,3.60
2023-04-29T02:57:09.219Z,3.70
2023-04-29T03:00:13.034Z,3.70
2023-04-29T03:03:16.323Z,3.60
2023-04-29T03:06:19.522Z,3.50
2023-04-29T03:09:22.800Z,3.50
2023-04-29T03:12:27.786Z,3.50
2023-04-29T03:15:31.186Z,3.40
2023-04-29T03:18:34.408Z,3.40
2023-04-29T03:21:37.665Z,3.30
2023-04-29T03:24:41.141Z,3.30
2023-04-29T03:27:45.898Z,3.30
2023-04-29T03:30:49.048Z,3.40
2023-04-29T03:33:53.480Z,3.40
2023-04-29T03:36:57.553Z,3.40
2023-04-29T03:40:00.819Z,3.50
2023-04-29T03:43:06.823Z,3.60
2023-04-29T03:46:10.097Z,3.60
2023-04-29T03:49:13.572Z,3.70
2023-04-29T03:52:17.231Z,3.90
2023-04-29T03:55:22.619Z,4.00
2023-04-29T03:58:27.311Z,4.20
2023-04-29T04:01:30.691Z,4.40
2023-04-29T04:04:34.600Z,4.60
2023-04-29T04:07:37.945Z,4.90
2023-04-29T04:11:03.012Z,5.10
2023-04-29T04:14:18.564Z,5.40
2023-04-29T04:17:25.238Z,5.60
2023-04-29T04:20:28.416Z,5.70
2023-04-29T04:23:32.064Z,5.90
2023-04-29T04:26:39.660Z,6.00
2023-04-29T04:29:57.232Z,6.10
2023-04-29T04:33:06.131Z,6.20
2023-04-29T04:36:10.226Z,6.30
2023-04-29T04:39:13.664Z,6.40
2023-04-29T04:42:17.018Z,6.40
2023-04-29T04:45:24.291Z,6.50
2023-04-29T04:48:28.032Z,6.60
2023-04-29T04:51:31.398Z,6.80
2023-04-29T04:54:35.882Z,6.90
2023-04-29T04:57:49.480Z,7.00
2023-04-29T05:00:54.739Z,7.20
2023-04-29T05:03:58.589Z,7.20
2023-04-29T05:07:02.013Z,7.30
2023-04-29T05:10:12.183Z,7.40
2023-04-29T05:13:22.593Z,7.50
2023-04-29T05:16:27.289Z,7.60
2023-04-29T05:19:31.329Z,7.70
2023-04-29T05:22:34.585Z,7.70
2023-04-29T05:25:38.619Z,7.70
2023-04-29T05:28:42.578Z,7.80
2023-04-29T05:31:47.916Z,7.90
2023-04-29T05:34:51.198Z,8.10
2023-04-29T05:37:54.584Z,8.10
2023-04-29T05:41:05.764Z,8.20
2023-04-29T05:44:44.543Z,8.40
2023-04-29T05:47:49.691Z,8.60
2023-04-29T05:50:54.105Z,8.80
2023-04-29T05:53:59.472Z,9.00
2023-04-29T05:57:03.571Z,9.00
2023-04-29T06:00:08.018Z,9.20
2023-04-29T06:03:18.194Z,9.30
2023-04-29T06:06:21.947Z,9.40
2023-04-29T06:09:44.572Z,9.40
2023-04-29T06:12:50.811Z,9.60
2023-04-29T06:15:54.101Z,9.80
2023-04-29T06:18:59.003Z,10.10
2023-04-29T06:22:02.228Z,10.10
2023-04-29T06:25:07.199Z,10.30
2023-04-29T06:28:23.450Z,10.40
2023-04-29T06:31:27.109Z,10.60
2023-04-29T06:34:37.122Z,10.60
2023-04-29T06:38:01.395Z,10.60
2023-04-29T06:41:23.684Z,10.80
2023-04-29T06:44:29.774Z,11.00
2023-04-29T06:47:51.404Z,11.20
2023-04-29T06:51:09.163Z,11.20
2023-04-29T06:54:14.083Z,11.10
2023-04-29T06:57:18.414Z,11.20
2023-04-29T07:00:22.891Z,11.50
2023-04-29T07:03:26.492Z,11.50
2023-04-29T07:06:31.784Z,11.60
2023-04-29T07:09:35.352Z,12.00
2023-04-29T07:12:40.819Z,12.40
2023-04-29T07:15:44.088Z,12.30
2023-04-29T07:18:47.382Z,12.20
2023-04-29T07:21:52.131Z,12.50
2023-04-29T07:24:55.843Z,12.60
2023-04-29T07:27:59.487Z,12.80
2023-04-29T07:31:02.945Z,12.90
2023-04-29T07:34:08.016Z,13.30
2023-04-29T07:37:12.899Z,13.10
2023-04-29T07:40:16.227Z,13.00
2023-04-29T07:43:20.095Z,13.10
2023-04-29T07:46:23.652Z,13.40
2023-04-29T07:49:27.311Z,13.30
2023-04-29T07:52:31.941Z,13.50
2023-04-29T07:55:35.488Z,13.60
2023-04-29T07:58:39.039Z,14.00
2023-04-29T08:01:42.496Z,14.10
2023-04-29T08:04:45.951Z,14.30
2023-04-29T08:07:52.004Z,14.40
2023-04-29T08:10:55.267Z,14.40
2023-04-29T08:14:00.149Z,14.20
2023-04-29T08:17:03.488Z,14.40
2023-04-29T08:20:09.416Z,14.40
2023-04-29T08:23:14.257Z,14.20
2023-04-29T08:26:17.584Z,14.10
2023-04-29T08:29:20.889Z,14.10
2023-04-29T08:32:24.423Z,14.30
2023-04-29T08:35:27.831Z,14.50
2023-04-29T08:38:32.598Z,14.30
2023-04-29T08:41:37.837Z,14.40
2023-04-29T08:44:42.108Z,14.40
2023-04-29T08:47:45.791Z,14.40
2023-04-29T08:50:49.018Z,14.50
2023-04-29T08:53:53.797Z,14.90
2023-04-29T08:56:58.044Z,15.00
2023-04-29T09:00:02.605Z,15.30
2023-04-29T09:03:16.015Z,15.10
2023-04-29T09:06:21.286Z,15.10
2023-04-29T09:09:26.808Z,15.30
2023-04-29T09:12:30.603Z,15.50
2023-04-29T09:15:37.960Z,15.70
2023-04-29T09:18:46.268Z,15.70
2023-04-29T09:21:56.663Z,15.80
2023-04-29T09:25:14.217Z,15.60
2023-04-29T09:28:17.792Z,15.40
2023-04-29T09:31:29.213Z,15.70
2023-04-29T09:34:35.961Z,15.60
2023-04-29T09:37:39.157Z,15.60
2023-04-29T09:40:57.496Z,16.00
2023-04-29T09:44:06.406Z,16.30
2023-04-29T09:47:11.185Z,16.50
2023-04-29T09:50:16.327Z,16.30
2023-04-29T09:53:31.437Z,16.40
2023-04-29T09:56:50.930Z,16.80
2023-04-29T09:59:54.119Z,16.00
2023-04-29T10:03:01.359Z,16.20
2023-04-29T10:06:06.517Z,16.10
2023-04-29T10:09:16.024Z,16.30
2023-04-29T10:12:21.813Z,16.40
2023-04-29T10:15:30.727Z,16.30
2023-04-29T10:18:38.626Z,16.30
2023-04-29T10:21:42.231Z,15.60
2023-04-29T10:24:46.749Z,15.90
2023-04-29T10:27:53.512Z,16.50
2023-04-29T10:30:59.063Z,16.90
2023-04-29T10:34:02.735Z,16.90
2023-04-29T10:37:06.907Z,17.20
2023-04-29T10:40:16.240Z,17.40
2023-04-29T10:43:24.835Z,17.20
2023-04-29T10:46:28.495Z,16.70
2023-04-29T10:49:35.964Z,16.60
2023-04-29T10:52:55.848Z,16.80
2023-04-29T10:56:01.008Z,16.60
2023-04-29T10:59:05.668Z,17.00
2023-04-29T11:02:11.108Z,17.30
2023-04-29T11:05:14.473Z,17.30
2023-04-29T11:08:26.478Z,17.60
2023-04-29T11:11:45.456Z,17.70
2023-04-29T11:14:53.343Z,18.00
2023-04-29T11:18:01.675Z,18.70
2023-04-29T11:21:14.955Z,19.00
2023-04-29T11:24:18.208Z,19.30
2023-04-29T11:27:25.374Z,19.20
2023-04-29T11:30:31.379Z,19.90
2023-04-29T11:33:34.802Z,19.30
2023-04-29T11:36:38.228Z,20.00
2023-04-29T11:39:41.517Z,19.80
2023-04-29T11:42:47.952Z,19.80
2023-04-29T11:45:54.711Z,19.80
2023-04-29T11:48:59.887Z,19.50
2023-04-29T11:52:03.319Z,19.60
2023-04-29T11:55:07.697Z,19.60
2023-04-29T11:58:11.122Z,19.40
2023-04-29T12:01:18.819Z,20.10
2023-04-29T12:04:22.672Z,20.20
2023-04-29T12:07:26.183Z,20.30
2023-04-29T12:10:29.492Z,20.10
2023-04-29T12:13:33.136Z,20.30
2023-04-29T12:16:38.712Z,20.50
2023-04-29T12:19:44.256Z,21.10
2023-04-29T12:22:48.802Z,21.80
2023-04-29T12:25:53.388Z,22.00
2023-04-29T12:28:58.411Z,21.50
2023-04-29T12:32:03.032Z,21.90
2023-04-29T12:35:07.355Z,21.80
2023-04-29T12:38:11.251Z,22.20
2023-04-29T12:41:17.527Z,22.20
2023-04-29T12:44:21.333Z,21.90
2023-04-29T12:47:34.521Z,22.70
2023-04-29T12:50:38.905Z,22.30
2023-04-29T12:53:42.185Z,22.10
2023-04-29T12:56:48.496Z,23.40
2023-04-29T12:59:52.639Z,22.30
2023-04-29T13:02:57.926Z,21.90
2023-04-29T13:06:02.675Z,22.50
2023-04-29T13:09:06.504Z,22.00
2023-04-29T13:12:09.821Z,22.30
2023-04-29T13:15:13.845Z,22.50
2023-04-29T13:18:18.660Z,22.40
2023-04-29T13:21:22.186Z,22.80
2023-04-29T13:24:25.614Z,23.00
2023-04-29T13:27:29.084Z,23.30
2023-04-29T13:30:33.066Z,22.10
2023-04-29T13:33:39.842Z,22.60
2023-04-29T13:36:43.822Z,22.70
2023-04-29T13:39:48.153Z,22.10
2023-04-29T13:42:59.566Z,22.20
2023-04-29T13:46:09.253Z,23.10
2023-04-29T13:49:42.375Z,22.70
2023-04-29T13:53:19.632Z,21.90
2023-04-29T13:56:53.369Z,21.90
2023-04-29T14:02:31.772Z,23.40
2023-04-29T14:05:37.484Z,23.10
2023-04-29T14:08:41.036Z,22.40
2023-04-29T14:11:44.508Z,22.20
2023-04-29T14:14:47.751Z,22.10
2023-04-29T14:17:51.469Z,22.10
2023-04-29T14:20:56.213Z,21.90
2023-04-29T14:23:59.715Z,22.50
2023-04-29T14:27:03.940Z,22.70
2023-04-29T14:30:08.783Z,22.50
2023-04-29T14:33:11.971Z,21.80
2023-04-29T14:36:16.615Z,22.50
2023-04-29T14:39:20.015Z,22.00
2023-04-29T14:42:23.354Z,22.60
2023-04-29T14:45:26.831Z,22.20
2023-04-29T14:48:30.043Z,22.10
2023-04-29T14:51:35.237Z,22.10
2023-04-29T14:54:38.493Z,22.10
2023-04-29T14:57:41.691Z,22.10
2023-04-29T15:00:44.967Z,22.70
2023-04-29T15:03:48.224Z,22.00
2023-04-29T15:06:53.083Z,22.30
2023-04-29T15:09:56.317Z,22.20
2023-04-29T15:12:59.679Z,22.70
2023-04-29T15:16:03.974Z,22.90
2023-04-29T15:19:07.287Z,23.60
2023-04-29T15:22:12.908Z,23.90
2023-04-29T15:25:16.225Z,23.80
2023-04-29T15:28:19.448Z,24.10
2023-04-29T15:31:24.272Z,23.30
2023-04-29T15:34:28.648Z,23.60
2023-04-29T15:37:34.798Z,23.30
2023-04-29T15:40:38.144Z,23.70
2023-04-29T15:43:41.463Z,23.50
2023-04-29T15:46:44.748Z,22.70
2023-04-29T15:49:48.024Z,23.30
2023-04-29T15:52:55.834Z,23.60
2023-04-29T15:55:59.994Z,23.70
2023-04-29T15:59:03.461Z,23.80
2023-04-29T16:02:10.764Z,23.70
2023-04-29T16:05:14.513Z,23.50
2023-04-29T16:08:19.294Z,23.40
2023-04-29T16:11:22.639Z,23.50
2023-04-29T16:14:27.044Z,23.20
2023-04-29T16:17:33.565Z,22.40
2023-04-29T16:20:38.052Z,22.30
2023-04-29T16:23:44.117Z,22.50
2023-04-29T16:26:48.308Z,21.50
2023-04-29T16:29:54.818Z,21.10
2023-04-29T16:32:59.113Z,20.50
2023-04-29T16:36:03.826Z,19.80
2023-04-29T16:39:08.647Z,19.20
2023-04-29T16:42:12.762Z,18.60
2023-04-29T16:45:16.456Z,18.00
2023-04-29T16:48:20.312Z,17.40
2023-04-29T16:51:25.737Z,17.00
2023-04-29T16:54:31.607Z,16.60
2023-04-29T16:57:35.771Z,16.30
2023-04-29T17:00:39.355Z,15.80
2023-04-29T17:03:42.982Z,15.70
2023-04-29T17:06:47.657Z,15.70
2023-04-29T17:09:52.810Z,15.30
2023-04-29T17:12:56.419Z,15.30
2023-04-29T17:15:59.834Z,15.10
2023-04-29T17:19:03.474Z,15.00
2023-04-29T17:22:08.213Z,14.90
2023-04-29T17:25:14.776Z,14.80
2023-04-29T17:28:18.197Z,14.30
2023-04-29T17:31:25.489Z,14.20
2023-04-29T17:34:30.985Z,14.20
2023-04-29T17:37:34.431Z,13.90
2023-04-29T17:40:39.468Z,13.80
2023-04-29T17:43:42.870Z,13.70
2023-04-29T17:46:46.257Z,13.50
2023-04-29T17:49:51.885Z,13.50
2023-04-29T17:52:55.505Z,13.40
2023-04-29T17:56:00.680Z,13.30
2023-04-29T17:59:05.565Z,13.10
2023-04-29T18:02:09.085Z,13.00
2023-04-29T18:05:12.439Z,12.90
2023-04-29T18:08:15.726Z,12.80
2023-04-29T18:11:21.101Z,12.60
2023-04-29T18:14:25.232Z,12.50
2023-04-29T18:17:28.902Z,12.40
2023-04-29T18:20:32.858Z,12.30
2023-04-29T18:23:36.371Z,12.30
2023-04-29T18:26:41.996Z,12.30
2023-04-29T18:29:47.320Z,12.30
2023-04-29T18:32:51.058Z,12.10
2023-04-29T18:35:55.860Z,12.10
2023-04-29T18:38:59.895Z,11.90
2023-04-29T18:42:05.347Z,11.90
2023-04-29T18:45:10.897Z,11.80
2023-04-29T18:48:15.284Z,11.70
2023-04-29T18:51:20.369Z,11.70
2023-04-29T18:54:24.979Z,11.70
2023-04-29T18:57:31.050Z,11.60
2023-04-29T19:00:35.279Z,11.40
2023-04-29T19:03:41.164Z,11.30
2023-04-29T19:06:46.572Z,11.20
2023-04-29T19:09:50.387Z,11.00
2023-04-29T19:12:55.528Z,10.90
2023-04-29T19:16:00.581Z,10.90
2023-04-29T19:19:04.799Z,10.70
2023-04-29T19:22:08.894Z,10.70
2023-04-29T19:25:13.440Z,10.50
2023-04-29T19:28:19.708Z,10.40
2023-04-29T19:31:24.899Z,10.40
2023-04-29T19:34:29.282Z,10.40
2023-04-29T19:37:33.693Z,10.30
2023-04-29T19:40:38.847Z,10.30
2023-04-29T19:43:44.694Z,10.30
2023-04-29T19:46:51.841Z,10.20
2023-04-29T19:49:56.109Z,10.10
2023-04-29T19:52:59.806Z,10.10
2023-04-29T19:56:03.159Z,10.10
2023-04-29T19:59:07.930Z,10.00
2023-04-29T20:02:12.791Z,9.90
2023-04-29T20:05:16.434Z,9.80
2023-04-29T20:08:20.049Z,9.80
2023-04-29T20:11:24.032Z,9.80
2023-04-29T20:14:28.671Z,9.70
2023-04-29T20:17:32.129Z,9.60
2023-04-29T20:20:35.847Z,9.50
2023-04-29T20:23:39.275Z,9.40
2023-04-29T20:26:42.911Z,9.30
2023-04-29T20:29:49.986Z,9.20
2023-04-29T20:33:09.272Z,9.00
2023-04-29T20:36:18.960Z,8.90
2023-04-29T20:39:27.441Z,8.80
2023-04-29T20:42:33.932Z,8.70
2023-04-29T20:45:43.767Z,8.70
2023-04-29T20:48:53.690Z,8.70
2023-04-29T20:52:02.539Z,8.60
2023-04-29T20:55:10.268Z,8.50
2023-04-29T20:58:20.785Z,8.60
2023-04-29T21:01:31.585Z,7.80
2023-04-29T21:04:40.157Z,8.50
2023-04-29T21:07:46.769Z,8.40
2023-04-29T21:10:57.798Z,8.40
2023-04-29T21:14:05.203Z,8.30
2023-04-29T21:17:14.322Z,8.30
2023-04-29T21:20:22.168Z,8.20
2023-04-29T21:23:30.298Z,8.20
2023-04-29T21:26:36.019Z,8.10
2023-04-29T21:29:42.763Z,8.00
2023-04-29T21:32:50.078Z,7.90
2023-04-29T21:36:03.559Z,7.80
2023-04-29T21:39:18.219Z,7.70
2023-04-29T21:42:35.071Z,7.60
2023-04-29T21:45:39.596Z,7.50
2023-04-29T21:48:44.572Z,7.40
2023-04-29T21:51:49.246Z,7.40
2023-04-29T21:54:52.635Z,7.20
2023-04-29T21:57:55.968Z,7.10
2023-04-29T22:01:03.106Z,7.00
2023-04-29T22:04:08.506Z,7.00
2023-04-29T22:07:12.189Z,6.90
2023-04-29T22:10:15.659Z,6.80
2023-04-29T22:13:19.004Z,6.70
2023-04-29T22:16:23.550Z,6.70
2023-04-29T22:19:30.108Z,6.60
2023-04-29T22:22:33.476Z,6.50
2023-04-29T22:25:37.144Z,6.50
2023-04-29T22:28:40.449Z,6.40
2023-04-29T22:31:44.398Z,6.30
2023-04-29T22:34:49.155Z,6.20
2023-04-29T22:37:52.800Z,6.20
2023-04-29T22:40:57.202Z,6.10
2023-04-29T22:44:01.318Z,6.10
2023-04-29T22:47:04.910Z,6.10
2023-04-29T22:50:11.236Z,6.00
2023-04-29T22:53:14.434Z,6.00
2023-04-29T22:56:18.041Z,6.10
2023-04-29T22:59:21.362Z,6.10
2023-04-29T23:02:28.849Z,6.00
2023-04-29T23:05:33.510Z,6.00
2023-04-29T23:08:36.812Z,5.90
2023-04-29T23:11:40.146Z,5.90
2023-04-29T23:14:43.345Z,5.80
2023-04-29T23:17:46.680Z,5.80
2023-04-29T23:20:51.287Z,5.80
2023-04-29T23:23:54.953Z,5.70
2023-04-29T23:26:58.226Z,5.70
2023-04-29T23:30:02.328Z,5.70
2023-04-29T23:33:05.699Z,5.70
2023-04-29T23:36:11.309Z,5.70
2023-04-29T23:39:14.469Z,5.70
2023-04-29T23:42:17.645Z,5.60
2023-04-29T23:45:20.840Z,5.60
2023-04-29T23:48:24.148Z,5.50
2023-04-29T23:51:29.154Z,5.50
2023-04-29T23:54:32.350Z,5.50
2023-04-29T23:57:35.531Z,5.50
